sensor_id;sensor_type;location;lat;lon;timestamp;temperature;humidity
57833;DHT22;43667;53.036;6.740;2023-02-28T00:00:11;3.30;99.90
57833;DHT22;43667;53.036;6.740;2023-02-28T00:02:38;3.30;99.90
57833;DHT22;43667;53.036;6.740;2023-02-28T00:05:05;3.30;99.90
57833;DHT22;43667;53.036;6.740;2023-02-28T00:07:31;3.30;99.90
57833;DHT22;43667;53.036;6.740;2023-02-28T00:09:57;3.30;99.90
57833;DHT22;43667;53.036;6.740;2023-02-28T00:12:23;3.40;99.90
57833;DHT22;43667;53.036;6.740;2023-02-28T00:14:49;3.40;99.90
57833;DHT22;43667;53.036;6.740;2023-02-28T00:17:14;3.40;99.90
57833;DHT22;43667;53.036;6.740;2023-02-28T00:19:41;3.40;99.90
57833;DHT22;43667;53.036;6.740;2023-02-28T00:22:07;3.40;99.90
57833;DHT22;43667;53.036;6.740;2023-02-28T00:24:32;3.40;99.90
57833;DHT22;43667;53.036;6.740;2023-02-28T00:26:58;3.40;99.90
57833;DHT22;43667;53.036;6.740;2023-02-28T00:29:24;3.40;99.90
57833;DHT22;43667;53.036;6.740;2023-02-28T00:31:49;3.50;99.90
57833;DHT22;43667;53.036;6.740;2023-02-28T00:34:15;3.50;99.90
57833;DHT22;43667;53.036;6.740;2023-02-28T00:36:40;3.50;99.90
57833;DHT22;43667;53.036;6.740;2023-02-28T00:39:11;3.50;99.90
57833;DHT22;43667;53.036;6.740;2023-02-28T00:41:36;3.50;99.90
57833;DHT22;43667;53.036;6.740;2023-02-28T00:44:02;3.50;99.90
57833;DHT22;43667;53.036;6.740;2023-02-28T00:46:27;3.50;99.90
57833;DHT22;43667;53.036;6.740;2023-02-28T00:48:53;3.50;99.90
57833;DHT22;43667;53.036;6.740;2023-02-28T00:51:18;3.50;99.90
57833;DHT22;43667;53.036;6.740;2023-02-28T00:53:44;3.50;99.90
57833;DHT22;43667;53.036;6.740;2023-02-28T00:56:10;3.50;99.90
57833;DHT22;43667;53.036;6.740;2023-02-28T00:58:35;3.50;99.90
57833;DHT22;43667;53.036;6.740;2023-02-28T01:01:01;3.50;99.90
57833;DHT22;43667;53.036;6.740;2023-02-28T01:03:26;3.50;99.90
57833;DHT22;43667;53.036;6.740;2023-02-28T01:05:52;3.50;99.90
57833;DHT22;43667;53.036;6.740;2023-02-28T01:08:21;3.50;99.90
57833;DHT22;43667;53.036;6.740;2023-02-28T01:10:47;3.50;99.90
57833;DHT22;43667;53.036;6.740;2023-02-28T01:13:13;3.50;99.90
57833;DHT22;43667;53.036;6.740;2023-02-28T01:15:43;3.50;99.90
57833;DHT22;43667;53.036;6.740;2023-02-28T01:18:09;3.50;99.90
57833;DHT22;43667;53.036;6.740;2023-02-28T01:20:36;3.50;99.90
57833;DHT22;43667;53.036;6.740;2023-02-28T01:23:02;3.50;99.90
57833;DHT22;43667;53.036;6.740;2023-02-28T01:25:28;3.50;99.90
57833;DHT22;43667;53.036;6.740;2023-02-28T01:27:53;3.50;99.90
57833;DHT22;43667;53.036;6.740;2023-02-28T01:30:19;3.50;99.90
57833;DHT22;43667;53.036;6.740;2023-02-28T01:32:45;3.50;99.90
57833;DHT22;43667;53.036;6.740;2023-02-28T01:35:10;3.50;99.90
57833;DHT22;43667;53.036;6.740;2023-02-28T01:37:36;3.50;99.90
57833;DHT22;43667;53.036;6.740;2023-02-28T01:40:02;3.50;99.90
57833;DHT22;43667;53.036;6.740;2023-02-28T01:42:28;3.50;99.90
57833;DHT22;43667;53.036;6.740;2023-02-28T01:48:08;3.50;99.90
57833;DHT22;43667;53.036;6.740;2023-02-28T01:50:40;3.50;99.90
57833;DHT22;43667;53.036;6.740;2023-02-28T01:53:10;3.50;99.90
57833;DHT22;43667;53.036;6.740;2023-02-28T01:55:40;3.50;99.90
57833;DHT22;43667;53.036;6.740;2023-02-28T01:58:07;3.50;99.90
57833;DHT22;43667;53.036;6.740;2023-02-28T02:00:34;3.50;99.90
57833;DHT22;43667;53.036;6.740;2023-02-28T02:03:06;3.50;99.90
57833;DHT22;43667;53.036;6.740;2023-02-28T02:05:36;3.50;99.90
57833;DHT22;43667;53.036;6.740;2023-02-28T02:08:05;3.50;99.90
57833;DHT22;43667;53.036;6.740;2023-02-28T02:10:39;3.50;99.90
57833;DHT22;43667;53.036;6.740;2023-02-28T02:18:43;3.50;99.90
57833;DHT22;43667;53.036;6.740;2023-02-28T02:29:31;3.50;99.90
57833;DHT22;43667;53.036;6.740;2023-02-28T02:37:37;3.50;99.90
57833;DHT22;43667;53.036;6.740;2023-02-28T02:40:15;3.40;99.90
57833;DHT22;43667;53.036;6.740;2023-02-28T02:42:55;3.40;99.90
57833;DHT22;43667;53.036;6.740;2023-02-28T02:45:35;3.50;99.90
57833;DHT22;43667;53.036;6.740;2023-02-28T02:48:04;3.50;99.90
57833;DHT22;43667;53.036;6.740;2023-02-28T02:50:53;3.50;99.90
57833;DHT22;43667;53.036;6.740;2023-02-28T02:53:24;3.50;99.90
57833;DHT22;43667;53.036;6.740;2023-02-28T02:55:53;3.50;99.90
57833;DHT22;43667;53.036;6.740;2023-02-28T02:58:26;3.50;99.90
57833;DHT22;43667;53.036;6.740;2023-02-28T03:00:58;3.50;99.90
57833;DHT22;43667;53.036;6.740;2023-02-28T03:03:27;3.50;99.90
57833;DHT22;43667;53.036;6.740;2023-02-28T03:06:00;3.50;99.90
57833;DHT22;43667;53.036;6.740;2023-02-28T03:08:28;3.50;99.90
57833;DHT22;43667;53.036;6.740;2023-02-28T03:10:59;3.50;99.90
57833;DHT22;43667;53.036;6.740;2023-02-28T03:16:35;3.50;99.90
57833;DHT22;43667;53.036;6.740;2023-02-28T03:21:52;3.50;99.90
57833;DHT22;43667;53.036;6.740;2023-02-28T03:24:40;3.50;99.90
57833;DHT22;43667;53.036;6.740;2023-02-28T03:27:30;3.50;99.90
57833;DHT22;43667;53.036;6.740;2023-02-28T03:32:38;3.40;99.90
57833;DHT22;43667;53.036;6.740;2023-02-28T03:35:14;3.40;99.90
57833;DHT22;43667;53.036;6.740;2023-02-28T03:37:50;3.50;99.90
57833;DHT22;43667;53.036;6.740;2023-02-28T03:40:20;3.40;99.90
57833;DHT22;43667;53.036;6.740;2023-02-28T03:42:50;3.40;99.90
57833;DHT22;43667;53.036;6.740;2023-02-28T03:45:22;3.40;99.90
57833;DHT22;43667;53.036;6.740;2023-02-28T03:47:56;3.40;99.90
57833;DHT22;43667;53.036;6.740;2023-02-28T03:50:44;3.40;99.90
57833;DHT22;43667;53.036;6.740;2023-02-28T03:53:21;3.40;99.90
57833;DHT22;43667;53.036;6.740;2023-02-28T03:55:52;3.30;99.90
57833;DHT22;43667;53.036;6.740;2023-02-28T03:58:26;3.30;99.90
57833;DHT22;43667;53.036;6.740;2023-02-28T04:01:58;3.30;99.90
57833;DHT22;43667;53.036;6.740;2023-02-28T04:03:52;3.30;99.90
57833;DHT22;43667;53.036;6.740;2023-02-28T04:06:20;3.20;99.90
57833;DHT22;43667;53.036;6.740;2023-02-28T04:08:46;3.20;99.90
57833;DHT22;43667;53.036;6.740;2023-02-28T04:11:32;3.20;99.90
57833;DHT22;43667;53.036;6.740;2023-02-28T04:14:00;3.20;99.90
57833;DHT22;43667;53.036;6.740;2023-02-28T04:16:25;3.20;99.90
57833;DHT22;43667;53.036;6.740;2023-02-28T04:18:51;3.20;99.90
57833;DHT22;43667;53.036;6.740;2023-02-28T04:21:17;3.20;99.90
57833;DHT22;43667;53.036;6.740;2023-02-28T04:23:46;3.20;99.90
57833;DHT22;43667;53.036;6.740;2023-02-28T04:26:11;3.10;99.90
57833;DHT22;43667;53.036;6.740;2023-02-28T04:28:38;3.10;99.90
57833;DHT22;43667;53.036;6.740;2023-02-28T04:31:04;3.10;99.90
57833;DHT22;43667;53.036;6.740;2023-02-28T04:33:31;3.10;99.90
57833;DHT22;43667;53.036;6.740;2023-02-28T04:36:07;3.10;99.90
57833;DHT22;43667;53.036;6.740;2023-02-28T04:38:36;3.10;99.90
57833;DHT22;43667;53.036;6.740;2023-02-28T04:41:01;3.10;99.90
57833;DHT22;43667;53.036;6.740;2023-02-28T04:43:28;3.10;99.90
57833;DHT22;43667;53.036;6.740;2023-02-28T04:45:55;3.10;99.90
57833;DHT22;43667;53.036;6.740;2023-02-28T04:48:23;3.10;99.90
57833;DHT22;43667;53.036;6.740;2023-02-28T04:50:50;3.10;99.90
57833;DHT22;43667;53.036;6.740;2023-02-28T04:53:15;3.10;99.90
57833;DHT22;43667;53.036;6.740;2023-02-28T04:55:41;3.10;99.90
57833;DHT22;43667;53.036;6.740;2023-02-28T04:58:07;3.10;99.90
57833;DHT22;43667;53.036;6.740;2023-02-28T05:00:32;3.10;99.90
57833;DHT22;43667;53.036;6.740;2023-02-28T05:02:58;3.10;99.90
57833;DHT22;43667;53.036;6.740;2023-02-28T05:05:23;3.00;99.90
57833;DHT22;43667;53.036;6.740;2023-02-28T05:07:49;3.00;99.90
57833;DHT22;43667;53.036;6.740;2023-02-28T05:10:14;3.00;99.90
57833;DHT22;43667;53.036;6.740;2023-02-28T05:12:40;3.00;99.90
57833;DHT22;43667;53.036;6.740;2023-02-28T05:15:06;3.00;99.90
57833;DHT22;43667;53.036;6.740;2023-02-28T05:17:32;3.00;99.90
57833;DHT22;43667;53.036;6.740;2023-02-28T05:19:57;3.00;99.90
57833;DHT22;43667;53.036;6.740;2023-02-28T05:22:23;3.00;99.90
57833;DHT22;43667;53.036;6.740;2023-02-28T05:24:48;3.00;99.90
57833;DHT22;43667;53.036;6.740;2023-02-28T05:27:14;2.90;99.90
57833;DHT22;43667;53.036;6.740;2023-02-28T05:29:40;3.00;99.90
57833;DHT22;43667;53.036;6.740;2023-02-28T05:32:10;2.90;99.90
57833;DHT22;43667;53.036;6.740;2023-02-28T05:34:37;2.90;99.90
57833;DHT22;43667;53.036;6.740;2023-02-28T05:37:03;2.90;99.90
57833;DHT22;43667;53.036;6.740;2023-02-28T05:39:29;2.90;99.90
57833;DHT22;43667;53.036;6.740;2023-02-28T05:41:54;2.80;99.90
57833;DHT22;43667;53.036;6.740;2023-02-28T05:44:20;2.80;99.90
57833;DHT22;43667;53.036;6.740;2023-02-28T05:46:46;2.80;99.90
57833;DHT22;43667;53.036;6.740;2023-02-28T05:49:11;2.70;99.90
57833;DHT22;43667;53.036;6.740;2023-02-28T05:51:37;2.70;99.90
57833;DHT22;43667;53.036;6.740;2023-02-28T05:54:05;2.70;99.90
57833;DHT22;43667;53.036;6.740;2023-02-28T05:56:32;2.70;99.90
57833;DHT22;43667;53.036;6.740;2023-02-28T05:58:59;2.60;99.90
57833;DHT22;43667;53.036;6.740;2023-02-28T06:01:40;2.60;99.90
57833;DHT22;43667;53.036;6.740;2023-02-28T06:04:08;2.70;99.90
57833;DHT22;43667;53.036;6.740;2023-02-28T06:06:35;2.60;99.90
57833;DHT22;43667;53.036;6.740;2023-02-28T06:09:01;2.60;99.90
57833;DHT22;43667;53.036;6.740;2023-02-28T06:11:27;2.60;99.90
57833;DHT22;43667;53.036;6.740;2023-02-28T06:13:54;2.60;99.90
57833;DHT22;43667;53.036;6.740;2023-02-28T06:16:21;2.60;99.90
57833;DHT22;43667;53.036;6.740;2023-02-28T06:18:47;2.60;99.90
57833;DHT22;43667;53.036;6.740;2023-02-28T06:21:13;2.60;99.90
57833;DHT22;43667;53.036;6.740;2023-02-28T06:23:38;2.60;99.90
57833;DHT22;43667;53.036;6.740;2023-02-28T06:26:04;2.60;99.90
57833;DHT22;43667;53.036;6.740;2023-02-28T06:28:31;2.60;99.90
57833;DHT22;43667;53.036;6.740;2023-02-28T06:30:56;2.60;99.90
57833;DHT22;43667;53.036;6.740;2023-02-28T06:33:22;2.60;99.90
57833;DHT22;43667;53.036;6.740;2023-02-28T06:35:50;2.60;99.90
57833;DHT22;43667;53.036;6.740;2023-02-28T06:38:16;2.60;99.90
57833;DHT22;43667;53.036;6.740;2023-02-28T06:40:41;2.70;99.90
57833;DHT22;43667;53.036;6.740;2023-02-28T06:43:07;2.60;99.90
57833;DHT22;43667;53.036;6.740;2023-02-28T06:45:33;2.70;99.90
57833;DHT22;43667;53.036;6.740;2023-02-28T06:47:58;2.70;99.90
57833;DHT22;43667;53.036;6.740;2023-02-28T06:50:25;2.70;99.90
57833;DHT22;43667;53.036;6.740;2023-02-28T06:52:52;2.70;99.90
57833;DHT22;43667;53.036;6.740;2023-02-28T06:55:19;2.70;99.90
57833;DHT22;43667;53.036;6.740;2023-02-28T06:57:45;2.70;99.90
57833;DHT22;43667;53.036;6.740;2023-02-28T07:00:12;2.70;99.90
57833;DHT22;43667;53.036;6.740;2023-02-28T07:02:38;2.70;99.90
57833;DHT22;43667;53.036;6.740;2023-02-28T07:05:05;2.70;99.90
57833;DHT22;43667;53.036;6.740;2023-02-28T07:07:31;2.80;99.90
57833;DHT22;43667;53.036;6.740;2023-02-28T07:09:57;2.80;99.90
57833;DHT22;43667;53.036;6.740;2023-02-28T07:12:23;2.80;99.90
57833;DHT22;43667;53.036;6.740;2023-02-28T07:14:48;2.80;99.90
57833;DHT22;43667;53.036;6.740;2023-02-28T07:17:14;2.80;99.90
57833;DHT22;43667;53.036;6.740;2023-02-28T07:19:40;2.80;99.90
57833;DHT22;43667;53.036;6.740;2023-02-28T07:22:06;2.90;99.90
57833;DHT22;43667;53.036;6.740;2023-02-28T07:24:32;2.90;99.90
57833;DHT22;43667;53.036;6.740;2023-02-28T07:26:58;2.90;99.90
57833;DHT22;43667;53.036;6.740;2023-02-28T07:29:25;2.90;99.90
57833;DHT22;43667;53.036;6.740;2023-02-28T07:31:50;2.90;99.90
57833;DHT22;43667;53.036;6.740;2023-02-28T07:34:18;2.90;99.90
57833;DHT22;43667;53.036;6.740;2023-02-28T07:36:44;2.90;99.90
57833;DHT22;43667;53.036;6.740;2023-02-28T07:39:10;2.90;99.90
57833;DHT22;43667;53.036;6.740;2023-02-28T07:41:35;2.90;99.90
57833;DHT22;43667;53.036;6.740;2023-02-28T07:44:05;2.90;99.90
57833;DHT22;43667;53.036;6.740;2023-02-28T07:46:30;2.90;99.90
57833;DHT22;43667;53.036;6.740;2023-02-28T07:49:00;2.90;99.90
57833;DHT22;43667;53.036;6.740;2023-02-28T07:51:28;2.90;99.90
57833;DHT22;43667;53.036;6.740;2023-02-28T07:53:54;2.90;99.90
57833;DHT22;43667;53.036;6.740;2023-02-28T07:56:20;2.90;99.90
57833;DHT22;43667;53.036;6.740;2023-02-28T07:58:45;3.00;99.90
57833;DHT22;43667;53.036;6.740;2023-02-28T08:01:11;3.00;99.90
57833;DHT22;43667;53.036;6.740;2023-02-28T08:03:38;3.00;99.90
57833;DHT22;43667;53.036;6.740;2023-02-28T08:06:04;3.10;99.90
57833;DHT22;43667;53.036;6.740;2023-02-28T08:08:31;3.10;99.90
57833;DHT22;43667;53.036;6.740;2023-02-28T08:11:01;3.20;99.90
57833;DHT22;43667;53.036;6.740;2023-02-28T08:13:28;3.20;99.90
57833;DHT22;43667;53.036;6.740;2023-02-28T08:15:55;3.20;99.90
57833;DHT22;43667;53.036;6.740;2023-02-28T08:18:21;3.30;99.90
57833;DHT22;43667;53.036;6.740;2023-02-28T08:20:47;3.30;99.90
57833;DHT22;43667;53.036;6.740;2023-02-28T08:23:13;3.30;99.90
57833;DHT22;43667;53.036;6.740;2023-02-28T08:25:39;3.30;99.90
57833;DHT22;43667;53.036;6.740;2023-02-28T08:28:05;3.40;99.90
57833;DHT22;43667;53.036;6.740;2023-02-28T08:30:31;3.40;99.90
57833;DHT22;43667;53.036;6.740;2023-02-28T08:32:57;3.50;99.90
57833;DHT22;43667;53.036;6.740;2023-02-28T08:35:22;3.50;99.90
57833;DHT22;43667;53.036;6.740;2023-02-28T08:37:48;3.50;99.90
57833;DHT22;43667;53.036;6.740;2023-02-28T08:40:14;3.60;99.90
57833;DHT22;43667;53.036;6.740;2023-02-28T08:42:47;3.60;99.90
57833;DHT22;43667;53.036;6.740;2023-02-28T08:45:14;3.70;99.90
57833;DHT22;43667;53.036;6.740;2023-02-28T08:47:40;3.80;99.90
57833;DHT22;43667;53.036;6.740;2023-02-28T08:50:06;3.90;99.90
57833;DHT22;43667;53.036;6.740;2023-02-28T08:52:32;4.00;99.90
57833;DHT22;43667;53.036;6.740;2023-02-28T08:54:57;4.00;99.90
57833;DHT22;43667;53.036;6.740;2023-02-28T08:57:23;4.10;99.90
57833;DHT22;43667;53.036;6.740;2023-02-28T08:59:51;4.20;99.90
57833;DHT22;43667;53.036;6.740;2023-02-28T09:02:17;4.30;99.90
57833;DHT22;43667;53.036;6.740;2023-02-28T09:04:43;4.60;99.90
57833;DHT22;43667;53.036;6.740;2023-02-28T09:07:11;4.70;99.90
57833;DHT22;43667;53.036;6.740;2023-02-28T09:09:37;4.90;99.90
57833;DHT22;43667;53.036;6.740;2023-02-28T09:12:03;5.20;99.90
57833;DHT22;43667;53.036;6.740;2023-02-28T09:14:29;5.40;99.90
57833;DHT22;43667;53.036;6.740;2023-02-28T09:16:54;5.50;99.90
57833;DHT22;43667;53.036;6.740;2023-02-28T09:19:20;5.60;99.90
57833;DHT22;43667;53.036;6.740;2023-02-28T09:21:46;5.70;99.90
57833;DHT22;43667;53.036;6.740;2023-02-28T09:24:11;5.80;99.90
57833;DHT22;43667;53.036;6.740;2023-02-28T09:26:39;5.90;99.90
57833;DHT22;43667;53.036;6.740;2023-02-28T09:29:05;6.00;99.90
57833;DHT22;43667;53.036;6.740;2023-02-28T09:31:32;6.10;99.90
57833;DHT22;43667;53.036;6.740;2023-02-28T09:33:58;6.20;99.90
57833;DHT22;43667;53.036;6.740;2023-02-28T09:36:25;6.30;99.90
57833;DHT22;43667;53.036;6.740;2023-02-28T09:38:51;6.40;99.90
57833;DHT22;43667;53.036;6.740;2023-02-28T09:41:23;6.60;99.90
57833;DHT22;43667;53.036;6.740;2023-02-28T09:43:56;6.70;99.90
57833;DHT22;43667;53.036;6.740;2023-02-28T09:46:33;6.80;99.90
57833;DHT22;43667;53.036;6.740;2023-02-28T09:49:06;6.90;99.90
57833;DHT22;43667;53.036;6.740;2023-02-28T09:54:23;7.10;99.90
57833;DHT22;43667;53.036;6.740;2023-02-28T09:57:17;7.20;99.90
57833;DHT22;43667;53.036;6.740;2023-02-28T09:59:56;7.40;99.90
57833;DHT22;43667;53.036;6.740;2023-02-28T10:05:19;7.40;99.90
57833;DHT22;43667;53.036;6.740;2023-02-28T10:08:18;7.20;99.90
57833;DHT22;43667;53.036;6.740;2023-02-28T10:10:49;6.90;99.90
57833;DHT22;43667;53.036;6.740;2023-02-28T10:13:20;6.70;99.90
57833;DHT22;43667;53.036;6.740;2023-02-28T10:15:51;6.60;99.90
57833;DHT22;43667;53.036;6.740;2023-02-28T10:18:22;6.60;99.90
57833;DHT22;43667;53.036;6.740;2023-02-28T10:20:50;6.60;99.90
57833;DHT22;43667;53.036;6.740;2023-02-28T10:23:35;6.60;99.90
57833;DHT22;43667;53.036;6.740;2023-02-28T10:26:15;6.50;99.90
57833;DHT22;43667;53.036;6.740;2023-02-28T10:28:41;6.60;99.90
57833;DHT22;43667;53.036;6.740;2023-02-28T10:31:11;6.80;99.90
57833;DHT22;43667;53.036;6.740;2023-02-28T10:33:39;7.10;99.90
57833;DHT22;43667;53.036;6.740;2023-02-28T10:36:05;7.50;99.90
57833;DHT22;43667;53.036;6.740;2023-02-28T10:38:37;7.90;99.90
57833;DHT22;43667;53.036;6.740;2023-02-28T10:41:09;8.20;99.90
57833;DHT22;43667;53.036;6.740;2023-02-28T10:43:36;8.40;99.90
57833;DHT22;43667;53.036;6.740;2023-02-28T10:48:38;8.50;99.90
57833;DHT22;43667;53.036;6.740;2023-02-28T10:51:07;8.40;99.90
57833;DHT22;43667;53.036;6.740;2023-02-28T10:53:37;8.20;99.90
57833;DHT22;43667;53.036;6.740;2023-02-28T11:01:40;8.20;99.90
57833;DHT22;43667;53.036;6.740;2023-02-28T11:04:35;8.10;99.90
57833;DHT22;43667;53.036;6.740;2023-02-28T11:07:22;8.10;99.90
57833;DHT22;43667;53.036;6.740;2023-02-28T11:09:50;7.90;99.90
57833;DHT22;43667;53.036;6.740;2023-02-28T11:12:37;7.70;99.90
57833;DHT22;43667;53.036;6.740;2023-02-28T11:15:29;7.70;99.90
57833;DHT22;43667;53.036;6.740;2023-02-28T11:17:59;7.60;99.90
57833;DHT22;43667;53.036;6.740;2023-02-28T11:20:30;7.50;99.90
57833;DHT22;43667;53.036;6.740;2023-02-28T11:22:59;7.40;99.90
57833;DHT22;43667;53.036;6.740;2023-02-28T11:25:37;7.30;99.90
57833;DHT22;43667;53.036;6.740;2023-02-28T11:28:08;7.30;99.90
57833;DHT22;43667;53.036;6.740;2023-02-28T11:33:32;7.30;99.90
57833;DHT22;43667;53.036;6.740;2023-02-28T11:36:10;7.30;99.90
57833;DHT22;43667;53.036;6.740;2023-02-28T11:38:36;7.40;99.90
57833;DHT22;43667;53.036;6.740;2023-02-28T11:41:14;7.40;99.90
57833;DHT22;43667;53.036;6.740;2023-02-28T11:44:04;7.40;99.90
57833;DHT22;43667;53.036;6.740;2023-02-28T11:46:46;7.60;99.90
57833;DHT22;43667;53.036;6.740;2023-02-28T11:49:30;7.80;99.90
57833;DHT22;43667;53.036;6.740;2023-02-28T11:55:19;8.40;99.90
57833;DHT22;43667;53.036;6.740;2023-02-28T12:00:40;9.00;99.90
57833;DHT22;43667;53.036;6.740;2023-02-28T12:03:28;9.20;97.50
57833;DHT22;43667;53.036;6.740;2023-02-28T12:11:37;9.30;96.10
57833;DHT22;43667;53.036;6.740;2023-02-28T12:16:42;9.70;96.60
57833;DHT22;43667;53.036;6.740;2023-02-28T12:19:32;10.00;95.00
57833;DHT22;43667;53.036;6.740;2023-02-28T12:27:17;10.00;93.30
57833;DHT22;43667;53.036;6.740;2023-02-28T12:29:49;9.90;92.90
57833;DHT22;43667;53.036;6.740;2023-02-28T12:32:20;10.10;93.40
57833;DHT22;43667;53.036;6.740;2023-02-28T12:40:19;10.20;90.10
57833;DHT22;43667;53.036;6.740;2023-02-28T12:42:52;10.10;91.30
57833;DHT22;43667;53.036;6.740;2023-02-28T12:45:26;10.10;90.40
57833;DHT22;43667;53.036;6.740;2023-02-28T12:47:58;10.10;91.40
57833;DHT22;43667;53.036;6.740;2023-02-28T12:50:26;10.10;91.60
57833;DHT22;43667;53.036;6.740;2023-02-28T12:53:21;10.10;92.00
57833;DHT22;43667;53.036;6.740;2023-02-28T12:56:06;10.20;92.00
57833;DHT22;43667;53.036;6.740;2023-02-28T12:58:33;10.20;91.00
57833;DHT22;43667;53.036;6.740;2023-02-28T13:09:17;9.40;92.40
57833;DHT22;43667;53.036;6.740;2023-02-28T13:11:45;9.10;93.50
57833;DHT22;43667;53.036;6.740;2023-02-28T13:14:36;8.90;93.70
57833;DHT22;43667;53.036;6.740;2023-02-28T13:24:57;8.60;91.40
57833;DHT22;43667;53.036;6.740;2023-02-28T13:27:38;8.40;90.80
57833;DHT22;43667;53.036;6.740;2023-02-28T13:33:22;8.30;92.60
57833;DHT22;43667;53.036;6.740;2023-02-28T13:36:07;8.50;89.00
57833;DHT22;43667;53.036;6.740;2023-02-28T13:38:41;8.50;90.30
57833;DHT22;43667;53.036;6.740;2023-02-28T13:44:13;8.90;91.20
57833;DHT22;43667;53.036;6.740;2023-02-28T13:52:14;9.30;79.20
57833;DHT22;43667;53.036;6.740;2023-02-28T13:54:56;9.40;80.10
57833;DHT22;43667;53.036;6.740;2023-02-28T14:03:14;9.50;77.40
57833;DHT22;43667;53.036;6.740;2023-02-28T14:05:42;9.60;76.60
57833;DHT22;43667;53.036;6.740;2023-02-28T14:08:15;9.50;76.40
57833;DHT22;43667;53.036;6.740;2023-02-28T14:10:50;9.50;76.40
57833;DHT22;43667;53.036;6.740;2023-02-28T14:13:41;9.60;74.80
57833;DHT22;43667;53.036;6.740;2023-02-28T14:16:15;9.60;76.80
57833;DHT22;43667;53.036;6.740;2023-02-28T14:18:51;9.60;74.40
57833;DHT22;43667;53.036;6.740;2023-02-28T14:21:34;9.50;73.40
57833;DHT22;43667;53.036;6.740;2023-02-28T14:32:26;9.70;74.80
57833;DHT22;43667;53.036;6.740;2023-02-28T14:37:47;9.70;69.30
57833;DHT22;43667;53.036;6.740;2023-02-28T14:40:32;9.70;78.10
57833;DHT22;43667;53.036;6.740;2023-02-28T14:43:04;9.80;74.30
57833;DHT22;43667;53.036;6.740;2023-02-28T14:45:31;9.80;74.30
57833;DHT22;43667;53.036;6.740;2023-02-28T14:47:58;9.90;73.20
57833;DHT22;43667;53.036;6.740;2023-02-28T14:50:31;9.80;70.80
57833;DHT22;43667;53.036;6.740;2023-02-28T14:52:57;9.70;72.10
57833;DHT22;43667;53.036;6.740;2023-02-28T14:55:36;9.70;74.30
57833;DHT22;43667;53.036;6.740;2023-02-28T14:58:06;9.80;77.90
57833;DHT22;43667;53.036;6.740;2023-02-28T15:00:49;9.80;79.20
57833;DHT22;43667;53.036;6.740;2023-02-28T15:06:15;9.80;78.10
57833;DHT22;43667;53.036;6.740;2023-02-28T15:08:42;9.80;79.50
57833;DHT22;43667;53.036;6.740;2023-02-28T15:11:16;9.70;77.70
57833;DHT22;43667;53.036;6.740;2023-02-28T15:13:53;9.60;75.40
57833;DHT22;43667;53.036;6.740;2023-02-28T15:16:24;9.50;77.00
57833;DHT22;43667;53.036;6.740;2023-02-28T15:19:06;9.40;79.40
57833;DHT22;43667;53.036;6.740;2023-02-28T15:21:41;9.30;78.80
57833;DHT22;43667;53.036;6.740;2023-02-28T15:24:39;9.20;80.90
57833;DHT22;43667;53.036;6.740;2023-02-28T15:27:23;9.00;77.50
57833;DHT22;43667;53.036;6.740;2023-02-28T15:29:54;8.70;79.70
57833;DHT22;43667;53.036;6.740;2023-02-28T15:34:49;8.60;85.50
57833;DHT22;43667;53.036;6.740;2023-02-28T15:39:53;8.40;82.40
57833;DHT22;43667;53.036;6.740;2023-02-28T15:42:21;8.30;84.70
57833;DHT22;43667;53.036;6.740;2023-02-28T15:44:48;8.30;89.70
57833;DHT22;43667;53.036;6.740;2023-02-28T15:47:27;8.40;90.20
57833;DHT22;43667;53.036;6.740;2023-02-28T15:52:43;8.50;88.40
57833;DHT22;43667;53.036;6.740;2023-02-28T15:55:20;8.40;84.40
57833;DHT22;43667;53.036;6.740;2023-02-28T15:57:49;8.30;87.00
57833;DHT22;43667;53.036;6.740;2023-02-28T16:00:19;8.10;88.40
57833;DHT22;43667;53.036;6.740;2023-02-28T16:02:46;7.90;90.10
57833;DHT22;43667;53.036;6.740;2023-02-28T16:05:20;7.80;90.30
57833;DHT22;43667;53.036;6.740;2023-02-28T16:07:54;7.60;90.60
57833;DHT22;43667;53.036;6.740;2023-02-28T16:10:21;7.50;91.60
57833;DHT22;43667;53.036;6.740;2023-02-28T16:12:48;7.40;91.60
57833;DHT22;43667;53.036;6.740;2023-02-28T16:15:31;7.30;93.00
57833;DHT22;43667;53.036;6.740;2023-02-28T16:17:58;7.30;94.10
57833;DHT22;43667;53.036;6.740;2023-02-28T16:20:29;7.20;94.30
57833;DHT22;43667;53.036;6.740;2023-02-28T16:22:55;7.10;95.60
57833;DHT22;43667;53.036;6.740;2023-02-28T16:25:24;7.10;97.20
57833;DHT22;43667;53.036;6.740;2023-02-28T16:27:53;7.00;98.00
57833;DHT22;43667;53.036;6.740;2023-02-28T16:30:25;7.00;98.80
57833;DHT22;43667;53.036;6.740;2023-02-28T16:32:53;6.80;98.50
57833;DHT22;43667;53.036;6.740;2023-02-28T16:35:20;6.70;98.70
57833;DHT22;43667;53.036;6.740;2023-02-28T16:37:45;6.60;98.80
57833;DHT22;43667;53.036;6.740;2023-02-28T16:40:23;6.50;99.30
57833;DHT22;43667;53.036;6.740;2023-02-28T16:42:52;6.50;99.80
57833;DHT22;43667;53.036;6.740;2023-02-28T16:45:22;6.40;99.90
57833;DHT22;43667;53.036;6.740;2023-02-28T16:47:48;6.30;99.90
57833;DHT22;43667;53.036;6.740;2023-02-28T16:50:32;6.20;99.90
57833;DHT22;43667;53.036;6.740;2023-02-28T16:52:58;6.10;99.90
57833;DHT22;43667;53.036;6.740;2023-02-28T16:55:24;6.00;99.90
57833;DHT22;43667;53.036;6.740;2023-02-28T16:57:56;5.90;99.90
57833;DHT22;43667;53.036;6.740;2023-02-28T17:00:23;5.80;99.90
57833;DHT22;43667;53.036;6.740;2023-02-28T17:02:48;5.80;99.90
57833;DHT22;43667;53.036;6.740;2023-02-28T17:05:14;5.70;99.90
57833;DHT22;43667;53.036;6.740;2023-02-28T17:07:41;5.60;99.90
57833;DHT22;43667;53.036;6.740;2023-02-28T17:10:17;5.60;99.90
57833;DHT22;43667;53.036;6.740;2023-02-28T17:12:43;5.50;99.90
57833;DHT22;43667;53.036;6.740;2023-02-28T17:15:11;5.40;99.90
57833;DHT22;43667;53.036;6.740;2023-02-28T17:17:37;5.30;99.90
57833;DHT22;43667;53.036;6.740;2023-02-28T17:20:04;5.20;99.90
57833;DHT22;43667;53.036;6.740;2023-02-28T17:22:30;5.20;99.90
57833;DHT22;43667;53.036;6.740;2023-02-28T17:24:55;5.10;99.90
57833;DHT22;43667;53.036;6.740;2023-02-28T17:27:21;5.00;99.90
57833;DHT22;43667;53.036;6.740;2023-02-28T17:29:47;4.90;99.90
57833;DHT22;43667;53.036;6.740;2023-02-28T17:32:12;4.80;99.90
57833;DHT22;43667;53.036;6.740;2023-02-28T17:34:38;4.60;99.90
57833;DHT22;43667;53.036;6.740;2023-02-28T17:37:04;4.60;99.90
57833;DHT22;43667;53.036;6.740;2023-02-28T17:39:29;4.50;99.90
57833;DHT22;43667;53.036;6.740;2023-02-28T17:41:56;4.40;99.90
57833;DHT22;43667;53.036;6.740;2023-02-28T17:44:23;4.40;99.90
57833;DHT22;43667;53.036;6.740;2023-02-28T17:46:49;4.30;99.90
57833;DHT22;43667;53.036;6.740;2023-02-28T17:49:16;4.20;99.90
57833;DHT22;43667;53.036;6.740;2023-02-28T17:51:42;4.20;99.90
57833;DHT22;43667;53.036;6.740;2023-02-28T17:54:08;4.10;99.90
57833;DHT22;43667;53.036;6.740;2023-02-28T17:56:33;4.00;99.90
57833;DHT22;43667;53.036;6.740;2023-02-28T17:58:59;3.90;99.90
57833;DHT22;43667;53.036;6.740;2023-02-28T18:01:25;3.80;99.90
57833;DHT22;43667;53.036;6.740;2023-02-28T18:03:52;3.70;99.90
57833;DHT22;43667;53.036;6.740;2023-02-28T18:06:27;3.70;99.90
57833;DHT22;43667;53.036;6.740;2023-02-28T18:08:53;3.70;99.90